createdAt,value
2022-10-20T00:00:27.628Z,34.93
2022-10-20T00:01:27.633Z,34.83
2022-10-20T00:02:27.710Z,34.93
2022-10-20T00:03:27.627Z,34.93
2022-10-20T00:04:27.628Z,34.93
2022-10-20T00:05:27.627Z,34.83
2022-10-20T00:06:27.629Z,34.93
2022-10-20T00:07:27.628Z,34.83
2022-10-20T00:08:27.683Z,34.93
2022-10-20T00:09:27.628Z,34.83
2022-10-20T00:10:27.628Z,34.93
2022-10-20T00:11:27.627Z,34.93
2022-10-20T00:12:27.631Z,34.93
2022-10-20T00:13:27.629Z,34.93
2022-10-20T00:14:27.628Z,34.93
2022-10-20T00:15:27.628Z,34.83
2022-10-20T00:16:27.630Z,34.93
2022-10-20T00:17:27.629Z,35.13
2022-10-20T00:18:27.666Z,34.85
2022-10-20T00:19:27.629Z,34.93
2022-10-20T00:20:27.630Z,34.83
2022-10-20T00:21:27.680Z,34.93
2022-10-20T00:22:27.634Z,34.74
2022-10-20T00:23:27.631Z,34.95
2022-10-20T00:24:27.632Z,34.93
2022-10-20T00:25:27.629Z,34.64
2022-10-20T00:26:27.631Z,34.93
2022-10-20T00:27:27.630Z,34.93
2022-10-20T00:28:27.632Z,34.83
2022-10-20T00:29:27.636Z,34.83
2022-10-20T00:30:27.630Z,34.74
2022-10-20T00:31:27.631Z,34.93
2022-10-20T00:32:27.644Z,34.64
2022-10-20T00:33:27.630Z,34.93
2022-10-20T00:34:27.655Z,34.93
2022-10-20T00:35:27.630Z,34.93
2022-10-20T00:36:27.632Z,34.83
2022-10-20T00:37:27.632Z,34.93
2022-10-20T00:38:27.631Z,34.83
2022-10-20T00:39:27.635Z,34.83
2022-10-20T00:40:27.632Z,34.74
2022-10-20T00:41:27.631Z,34.74
2022-10-20T00:42:27.632Z,35.03
2022-10-20T00:43:27.631Z,34.93
2022-10-20T00:44:27.634Z,34.93
2022-10-20T00:45:27.634Z,34.93
2022-10-20T00:46:27.632Z,34.74
2022-10-20T00:47:27.632Z,34.83
2022-10-20T00:48:27.634Z,34.83
2022-10-20T00:49:27.633Z,34.64
2022-10-20T00:50:27.654Z,34.83
2022-10-20T00:51:27.633Z,34.74
2022-10-20T00:52:27.636Z,35.03
2022-10-20T00:53:27.634Z,35.03
2022-10-20T00:54:27.633Z,35.03
2022-10-20T00:55:27.633Z,35.03
2022-10-20T00:56:27.634Z,34.83
2022-10-20T00:57:27.633Z,34.93
2022-10-20T00:58:27.633Z,34.83
2022-10-20T00:59:27.639Z,34.83
2022-10-20T01:00:27.634Z,34.83
2022-10-20T01:01:27.698Z,35.03
2022-10-20T01:02:27.633Z,35.03
2022-10-20T01:03:27.633Z,34.83
2022-10-20T01:04:27.636Z,34.83
2022-10-20T01:05:27.635Z,34.93
2022-10-20T01:06:27.660Z,35.03
2022-10-20T01:07:27.634Z,34.93
2022-10-20T01:08:27.754Z,35.03
2022-10-20T01:09:27.637Z,35.03
2022-10-20T01:10:27.635Z,34.95
2022-10-20T01:11:27.635Z,34.93
2022-10-20T01:12:27.635Z,35.22
2022-10-20T01:13:27.635Z,35.13
2022-10-20T01:14:27.636Z,34.93
2022-10-20T01:15:27.637Z,35.22
2022-10-20T01:16:27.636Z,35.03
2022-10-20T01:17:27.634Z,35.03
2022-10-20T01:18:27.636Z,34.93
2022-10-20T01:19:27.636Z,34.93
2022-10-20T01:20:27.638Z,34.93
2022-10-20T01:21:27.636Z,35.13
2022-10-20T01:22:27.888Z,35.03
2022-10-20T01:23:27.635Z,34.74
2022-10-20T01:25:27.638Z,34.54
2022-10-20T01:26:27.637Z,34.74
2022-10-20T01:27:27.637Z,35.13
2022-10-20T01:28:27.636Z,35.13
2022-10-20T01:29:27.637Z,34.46
2022-10-20T01:30:27.635Z,34.93
2022-10-20T01:31:27.641Z,34.93
2022-10-20T01:32:27.637Z,35.03
2022-10-20T01:34:27.640Z,34.93
2022-10-20T01:35:27.638Z,34.54
2022-10-20T01:36:27.637Z,34.83
2022-10-20T01:37:40.555Z,34.54
2022-10-20T01:38:27.660Z,34.93
2022-10-20T01:39:27.638Z,34.83
2022-10-20T01:40:27.642Z,35.03
2022-10-20T01:41:27.639Z,35.03
2022-10-20T01:42:27.692Z,34.83
2022-10-20T01:43:27.638Z,35.03
2022-10-20T01:44:27.640Z,35.03
2022-10-20T01:45:27.638Z,35.03
2022-10-20T01:46:27.639Z,34.93
2022-10-20T01:47:27.640Z,34.93
2022-10-20T01:48:27.638Z,34.95
2022-10-20T01:49:27.642Z,35.03
2022-10-20T01:50:27.640Z,35.03
2022-10-20T01:51:27.641Z,35.03
2022-10-20T01:52:27.640Z,35.05
2022-10-20T01:53:27.640Z,34.44
2022-10-20T01:54:27.662Z,35.13
2022-10-20T01:55:27.640Z,35.13
2022-10-20T01:56:27.640Z,35.13
2022-10-20T01:57:27.641Z,35.13
2022-10-20T01:58:27.639Z,35.13
2022-10-20T01:59:27.639Z,34.83
2022-10-20T02:00:27.650Z,34.83
2022-10-20T02:01:27.727Z,34.64
2022-10-20T02:02:27.640Z,34.35
2022-10-20T02:03:27.640Z,34.83
2022-10-20T02:04:27.639Z,34.74
2022-10-20T02:05:27.640Z,34.83
2022-10-20T02:06:27.639Z,34.64
2022-10-20T02:07:27.643Z,34.83
2022-10-20T02:08:27.678Z,34.75
2022-10-20T02:09:27.643Z,34.74
2022-10-20T02:10:27.666Z,34.83
2022-10-20T02:11:27.643Z,34.64
2022-10-20T02:12:27.643Z,34.85
2022-10-20T02:13:27.641Z,34.75
2022-10-20T02:14:27.641Z,34.83
2022-10-20T02:15:27.641Z,34.74
2022-10-20T02:16:27.641Z,34.54
2022-10-20T02:17:27.643Z,34.54
2022-10-20T02:18:27.642Z,34.54
2022-10-20T02:19:27.643Z,34.54
2022-10-20T02:20:27.642Z,34.74
2022-10-20T02:21:27.644Z,34.54
2022-10-20T02:22:27.641Z,34.44
2022-10-20T02:23:27.642Z,34.44
2022-10-20T02:24:27.643Z,34.44
2022-10-20T02:25:27.644Z,34.54
2022-10-20T02:26:27.669Z,34.74
2022-10-20T02:27:27.643Z,34.83
2022-10-20T02:28:27.643Z,34.64
2022-10-20T02:29:27.645Z,34.74
2022-10-20T02:30:27.642Z,34.64
2022-10-20T02:31:27.643Z,34.74
2022-10-20T02:32:27.643Z,34.66
2022-10-20T02:33:27.644Z,34.74
2022-10-20T02:34:27.643Z,34.93
2022-10-20T02:35:27.645Z,34.64
2022-10-20T02:36:27.648Z,34.74
2022-10-20T02:37:27.645Z,34.74
2022-10-20T02:38:27.644Z,34.64
2022-10-20T02:39:27.645Z,34.74
2022-10-20T02:40:27.644Z,34.74
2022-10-20T02:41:27.645Z,34.64
2022-10-20T02:42:27.666Z,34.83
2022-10-20T02:43:27.644Z,34.74
2022-10-20T02:44:27.644Z,34.74
2022-10-20T02:45:27.647Z,34.74
2022-10-20T02:46:27.643Z,34.54
2022-10-20T02:47:27.645Z,34.74
2022-10-20T02:48:27.645Z,34.83
2022-10-20T02:49:27.648Z,34.54
2022-10-20T02:50:27.644Z,34.74
2022-10-20T02:51:27.647Z,34.64
2022-10-20T02:52:27.646Z,34.74
2022-10-20T02:53:27.645Z,34.93
2022-10-20T02:54:27.645Z,34.93
2022-10-20T02:55:27.647Z,34.83
2022-10-20T02:56:30.252Z,34.95
2022-10-20T02:57:27.647Z,34.44
2022-10-20T02:58:27.667Z,34.83
2022-10-20T02:59:27.649Z,34.44
2022-10-20T03:00:27.658Z,34.83
2022-10-20T03:01:27.733Z,34.74
2022-10-20T03:02:27.645Z,34.74
2022-10-20T03:03:27.646Z,34.83
2022-10-20T03:04:27.647Z,34.74
2022-10-20T03:05:27.650Z,34.44
2022-10-20T03:06:27.646Z,34.93
2022-10-20T03:07:27.650Z,34.93
2022-10-20T03:08:27.723Z,34.74
2022-10-20T03:09:27.649Z,34.54
2022-10-20T03:10:27.647Z,34.93
2022-10-20T03:11:27.648Z,34.74
2022-10-20T03:12:30.105Z,34.44
2022-10-20T03:13:27.648Z,34.93
2022-10-20T03:14:27.668Z,34.54
2022-10-20T03:15:27.647Z,34.93
2022-10-20T03:16:27.646Z,34.93
2022-10-20T03:17:27.651Z,34.83
2022-10-20T03:18:27.648Z,34.83
2022-10-20T03:19:27.648Z,34.54
2022-10-20T03:20:27.647Z,34.54
2022-10-20T03:21:27.649Z,34.54
2022-10-20T03:22:27.647Z,34.54
2022-10-20T03:23:27.648Z,34.44
2022-10-20T03:24:27.647Z,34.74
2022-10-20T03:25:27.648Z,34.74
2022-10-20T03:26:27.652Z,34.83
2022-10-20T03:27:27.650Z,34.83
2022-10-20T03:28:27.650Z,34.74
2022-10-20T03:29:27.649Z,34.93
2022-10-20T03:30:27.670Z,34.83
2022-10-20T03:31:27.649Z,34.83
2022-10-20T03:32:27.649Z,34.74
2022-10-20T03:33:27.653Z,34.83
2022-10-20T03:34:27.647Z,34.74
2022-10-20T03:35:27.650Z,34.83
2022-10-20T03:36:27.649Z,34.83
2022-10-20T03:37:27.651Z,34.83
2022-10-20T03:38:27.649Z,34.83
2022-10-20T03:39:27.650Z,35.03
2022-10-20T03:40:27.649Z,34.93
2022-10-20T03:41:27.650Z,34.74
2022-10-20T03:42:27.649Z,34.74
2022-10-20T03:43:27.650Z,34.74
2022-10-20T03:44:27.649Z,35.03
2022-10-20T03:45:27.651Z,34.74
2022-10-20T03:46:27.671Z,34.44
2022-10-20T03:47:27.650Z,34.93
2022-10-20T03:48:27.652Z,35.03
2022-10-20T03:49:27.653Z,34.54
2022-10-20T03:50:27.649Z,34.44
2022-10-20T03:51:27.650Z,34.44
2022-10-20T03:52:27.651Z,34.64
2022-10-20T03:53:27.651Z,34.93
2022-10-20T03:54:27.651Z,34.64
2022-10-20T03:55:27.651Z,34.54
2022-10-20T03:56:27.650Z,34.35
2022-10-20T03:57:27.654Z,34.54
2022-10-20T03:58:27.651Z,34.54
2022-10-20T03:59:30.355Z,34.54
2022-10-20T04:00:27.657Z,34.54
2022-10-20T04:01:27.731Z,34.54
2022-10-20T04:02:27.675Z,34.35
2022-10-20T04:03:27.651Z,34.44
2022-10-20T04:04:27.653Z,34.44
2022-10-20T04:05:27.653Z,34.44
2022-10-20T04:06:27.654Z,34.44
2022-10-20T04:07:27.652Z,34.35
2022-10-20T04:08:27.704Z,34.44
2022-10-20T04:09:27.665Z,34.35
2022-10-20T04:10:27.652Z,34.35
2022-10-20T04:11:27.661Z,34.35
2022-10-20T04:12:27.652Z,34.44
2022-10-20T04:13:27.653Z,34.35
2022-10-20T04:14:27.654Z,34.44
2022-10-20T04:15:27.654Z,34.54
2022-10-20T04:16:27.653Z,34.54
2022-10-20T04:17:27.711Z,34.35
2022-10-20T04:18:27.674Z,34.35
2022-10-20T04:19:27.653Z,34.44
2022-10-20T04:20:27.652Z,34.44
2022-10-20T04:21:27.655Z,34.44
2022-10-20T04:22:27.655Z,34.25
2022-10-20T04:23:27.654Z,34.44
2022-10-20T04:24:27.654Z,34.44
2022-10-20T04:25:27.654Z,34.35
2022-10-20T04:26:27.655Z,34.35
2022-10-20T04:27:27.655Z,34.44
2022-10-20T04:28:27.654Z,34.44
2022-10-20T04:29:27.656Z,34.54
2022-10-20T04:30:27.653Z,34.44
2022-10-20T04:31:27.655Z,34.44
2022-10-20T04:32:27.655Z,34.44
2022-10-20T04:33:27.654Z,34.44
2022-10-20T04:34:27.677Z,34.44
2022-10-20T04:35:27.655Z,34.44
2022-10-20T04:36:27.656Z,34.44
2022-10-20T04:37:27.659Z,34.54
2022-10-20T04:38:27.655Z,34.54
2022-10-20T04:39:27.657Z,34.54
2022-10-20T04:40:27.656Z,34.54
2022-10-20T04:41:27.656Z,34.44
2022-10-20T04:42:27.654Z,34.44
2022-10-20T04:43:27.655Z,34.44
2022-10-20T04:44:27.656Z,34.64
2022-10-20T04:45:27.656Z,34.44
2022-10-20T04:46:27.655Z,34.83
2022-10-20T04:47:27.658Z,34.44
2022-10-20T04:48:27.656Z,34.44
2022-10-20T04:49:27.658Z,34.83
2022-10-20T04:50:27.677Z,34.46
2022-10-20T04:51:27.656Z,34.54
2022-10-20T04:52:27.657Z,34.54
2022-10-20T04:53:27.657Z,34.54
2022-10-20T04:54:27.655Z,34.83
2022-10-20T04:55:27.657Z,34.44
2022-10-20T04:56:27.655Z,34.54
2022-10-20T04:57:27.658Z,34.44
2022-10-20T04:58:27.655Z,34.54
2022-10-20T04:59:27.658Z,34.54
2022-10-20T05:00:27.655Z,34.64
2022-10-20T05:01:27.707Z,34.35
2022-10-20T05:02:27.656Z,34.44
2022-10-20T05:03:27.659Z,34.44
2022-10-20T05:04:27.659Z,34.54
2022-10-20T05:05:27.658Z,34.64
2022-10-20T05:06:27.677Z,34.44
2022-10-20T05:07:27.658Z,34.44
2022-10-20T05:08:27.722Z,34.54
2022-10-20T05:09:27.659Z,34.64
2022-10-20T05:10:27.658Z,34.35
2022-10-20T05:11:27.658Z,34.44
2022-10-20T05:12:27.658Z,34.44
2022-10-20T05:13:27.658Z,34.54
2022-10-20T05:14:27.661Z,34.35
2022-10-20T05:15:27.660Z,34.35
2022-10-20T05:16:27.659Z,34.44
2022-10-20T05:17:27.660Z,34.44
2022-10-20T05:18:27.658Z,34.44
2022-10-20T05:19:27.658Z,34.93
2022-10-20T05:20:30.914Z,34.93
2022-10-20T05:21:27.757Z,34.74
2022-10-20T05:22:27.683Z,34.83
2022-10-20T05:23:27.659Z,34.83
2022-10-20T05:24:29.937Z,34.74
2022-10-20T05:25:43.054Z,34.74
2022-10-20T05:26:27.659Z,34.93
2022-10-20T05:27:27.661Z,35.03
2022-10-20T05:28:27.659Z,35.03
2022-10-20T05:29:27.664Z,34.93
2022-10-20T05:30:27.658Z,34.93
2022-10-20T05:31:27.661Z,35.03
2022-10-20T05:32:27.660Z,34.74
2022-10-20T05:33:27.660Z,34.54
2022-10-20T05:34:27.661Z,34.83
2022-10-20T05:35:27.659Z,34.54
2022-10-20T05:36:27.660Z,34.64
2022-10-20T05:37:27.661Z,34.54
2022-10-20T05:38:27.681Z,34.44
2022-10-20T05:39:27.660Z,34.83
2022-10-20T05:40:27.660Z,34.44
2022-10-20T05:41:27.663Z,34.93
2022-10-20T05:42:27.667Z,34.54
2022-10-20T05:43:27.661Z,35.03
2022-10-20T05:44:27.663Z,34.93
2022-10-20T05:45:27.662Z,34.54
2022-10-20T05:46:27.661Z,34.54
2022-10-20T05:47:27.664Z,34.46
2022-10-20T05:48:27.662Z,34.44
2022-10-20T05:49:27.660Z,34.35
2022-10-20T05:50:27.664Z,34.54
2022-10-20T05:51:27.660Z,34.35
2022-10-20T05:52:27.663Z,34.44
2022-10-20T05:53:27.662Z,34.54
2022-10-20T05:54:27.690Z,34.44
2022-10-20T05:55:27.663Z,34.35
2022-10-20T05:56:27.662Z,34.44
2022-10-20T05:57:27.663Z,34.44
2022-10-20T05:58:27.662Z,34.44
2022-10-20T05:59:27.669Z,34.25
2022-10-20T06:00:27.662Z,34.25
2022-10-20T06:01:27.858Z,34.44
2022-10-20T06:02:27.663Z,34.27
2022-10-20T06:03:28.355Z,34.35
2022-10-20T06:04:27.663Z,34.36
2022-10-20T06:05:27.662Z,34.35
2022-10-20T06:06:27.665Z,34.35
2022-10-20T06:07:27.661Z,34.35
2022-10-20T06:08:27.691Z,34.44
2022-10-20T06:09:27.663Z,34.35
2022-10-20T06:10:27.785Z,34.44
2022-10-20T06:11:27.662Z,34.35
2022-10-20T06:12:27.664Z,34.54
2022-10-20T06:13:27.663Z,34.44
2022-10-20T06:14:27.664Z,34.35
2022-10-20T06:15:27.662Z,34.44
2022-10-20T06:16:27.664Z,34.35
2022-10-20T06:17:27.668Z,34.35
2022-10-20T06:18:27.663Z,34.35
2022-10-20T06:19:27.664Z,34.35
2022-10-20T06:20:27.737Z,34.44
2022-10-20T06:21:27.711Z,34.35
2022-10-20T06:22:27.663Z,34.35
2022-10-20T06:23:27.664Z,34.35
2022-10-20T06:24:27.665Z,34.35
2022-10-20T06:25:27.664Z,34.44
2022-10-20T06:26:27.687Z,34.44
2022-10-20T06:27:27.663Z,34.35
2022-10-20T06:28:27.665Z,34.44
2022-10-20T06:29:27.665Z,34.35
2022-10-20T06:30:27.668Z,34.44
2022-10-20T06:31:27.664Z,34.44
2022-10-20T06:32:27.666Z,34.35
2022-10-20T06:33:27.665Z,34.35
2022-10-20T06:34:27.665Z,34.35
2022-10-20T06:35:27.666Z,34.35
2022-10-20T06:36:27.667Z,34.35
2022-10-20T06:37:27.665Z,34.44
2022-10-20T06:38:27.665Z,34.35
2022-10-20T06:39:27.664Z,34.35
2022-10-20T06:40:27.666Z,34.44
2022-10-20T06:41:27.666Z,34.44
2022-10-20T06:42:27.688Z,34.44
2022-10-20T06:43:27.666Z,34.44
2022-10-20T06:44:27.666Z,34.44
2022-10-20T06:45:27.665Z,34.35
2022-10-20T06:46:27.666Z,35.03
2022-10-20T06:47:27.668Z,34.95
2022-10-20T06:48:27.666Z,34.35
2022-10-20T06:49:27.675Z,34.25
2022-10-20T06:50:27.666Z,34.35
2022-10-20T06:51:27.667Z,34.35
2022-10-20T06:52:27.667Z,34.35
2022-10-20T06:53:27.666Z,34.25
2022-10-20T06:54:27.669Z,34.25
2022-10-20T06:55:27.666Z,34.35
2022-10-20T06:56:27.668Z,34.35
2022-10-20T06:57:27.669Z,34.35
2022-10-20T06:58:27.702Z,34.16
2022-10-20T06:59:27.666Z,34.08
2022-10-20T07:00:27.700Z,34.16
2022-10-20T07:01:27.697Z,34.16
2022-10-20T07:02:27.668Z,34.06
2022-10-20T07:03:27.668Z,34.35
2022-10-20T07:04:27.667Z,34.16
2022-10-20T07:05:27.667Z,34.36
2022-10-20T07:06:27.668Z,34.16
2022-10-20T07:07:27.717Z,34.16
2022-10-20T07:08:27.727Z,33.96
2022-10-20T07:09:27.670Z,34.06
2022-10-20T07:10:27.678Z,34.27
2022-10-20T07:11:27.667Z,34.16
2022-10-20T07:12:27.673Z,34.36
2022-10-20T07:13:27.669Z,34.17
2022-10-20T07:14:31.606Z,34.25
2022-10-20T07:15:27.669Z,34.27
2022-10-20T07:16:27.669Z,34.46
2022-10-20T07:17:27.670Z,34.27
2022-10-20T07:18:27.670Z,34.27
2022-10-20T07:19:27.668Z,34.36
2022-10-20T07:20:27.670Z,34.27
2022-10-20T07:21:32.275Z,34.27
2022-10-20T07:22:27.670Z,34.27
2022-10-20T07:23:27.669Z,34.17
2022-10-20T07:24:27.670Z,34.17
2022-10-20T07:25:27.669Z,34.27
2022-10-20T07:26:27.670Z,34.27
2022-10-20T07:27:27.678Z,34.27
2022-10-20T07:28:27.673Z,34.27
2022-10-20T07:29:27.723Z,34.36
2022-10-20T07:30:27.695Z,33.78
2022-10-20T07:31:27.673Z,33.78
2022-10-20T07:32:27.672Z,33.78
2022-10-20T07:33:27.671Z,33.98
2022-10-20T07:34:28.194Z,33.90
2022-10-20T07:35:27.671Z,33.70
2022-10-20T07:36:28.690Z,33.61
2022-10-20T07:37:27.672Z,34.09
2022-10-20T07:38:27.675Z,33.51
2022-10-20T07:39:27.671Z,33.80
2022-10-20T07:40:27.675Z,33.70
2022-10-20T07:41:27.678Z,33.61
2022-10-20T07:42:27.688Z,33.31
2022-10-20T07:43:27.675Z,33.22
2022-10-20T07:44:27.676Z,33.22
2022-10-20T07:45:27.674Z,33.22
2022-10-20T07:46:27.700Z,33.22
2022-10-20T07:47:27.675Z,32.92
2022-10-20T07:48:27.677Z,33.12
2022-10-20T07:49:44.444Z,32.92
2022-10-20T07:50:27.678Z,32.64
2022-10-20T07:51:27.677Z,32.73
2022-10-20T07:52:27.679Z,32.54
2022-10-20T07:53:27.680Z,32.64
2022-10-20T07:54:27.680Z,32.64
2022-10-20T07:55:39.490Z,32.54
2022-10-20T07:56:27.680Z,32.82
2022-10-20T07:57:27.680Z,32.35
2022-10-20T07:58:27.681Z,32.35
2022-10-20T07:59:27.681Z,32.24
2022-10-20T08:00:27.784Z,32.44
2022-10-20T08:01:27.727Z,32.35
2022-10-20T08:02:27.706Z,32.26
2022-10-20T08:03:27.683Z,32.17
2022-10-20T08:04:27.692Z,32.26
2022-10-20T08:05:27.685Z,32.07
2022-10-20T08:06:27.687Z,31.97
2022-10-20T08:07:27.685Z,32.17
2022-10-20T08:08:27.790Z,32.26
2022-10-20T08:09:27.688Z,32.45
2022-10-20T08:10:27.687Z,32.35
2022-10-20T08:11:27.689Z,32.45
2022-10-20T08:12:27.689Z,32.07
2022-10-20T08:13:27.689Z,32.35
2022-10-20T08:14:27.728Z,32.35
2022-10-20T08:15:27.690Z,32.07
2022-10-20T08:16:28.042Z,32.45
2022-10-20T08:17:27.712Z,32.45
2022-10-20T08:18:27.751Z,32.07
2022-10-20T08:19:27.739Z,32.17
2022-10-20T08:20:27.862Z,32.17
2022-10-20T08:21:27.693Z,32.17
2022-10-20T08:22:27.693Z,32.17
2022-10-20T08:23:27.694Z,32.07
2022-10-20T08:24:27.695Z,32.07
2022-10-20T08:25:27.697Z,31.97
2022-10-20T08:26:27.696Z,32.17
2022-10-20T08:27:27.696Z,32.35
2022-10-20T08:28:27.698Z,32.17
2022-10-20T08:29:27.698Z,32.35
2022-10-20T08:30:27.700Z,32.55
2022-10-20T08:31:27.699Z,32.26
2022-10-20T08:32:27.702Z,32.35
2022-10-20T08:33:27.700Z,32.17
2022-10-20T08:34:27.723Z,32.35
2022-10-20T08:35:27.701Z,31.97
2022-10-20T08:36:27.706Z,32.17
2022-10-20T08:37:27.706Z,31.97
2022-10-20T08:38:27.704Z,32.26
2022-10-20T08:39:27.704Z,32.26
2022-10-20T08:40:27.705Z,32.35
2022-10-20T08:41:34.543Z,32.35
2022-10-20T08:42:27.707Z,33.43
2022-10-20T08:43:27.707Z,34.88
2022-10-20T08:44:27.708Z,32.86
2022-10-20T08:45:27.708Z,32.76
2022-10-20T08:46:27.711Z,32.65
2022-10-20T08:47:30.748Z,32.65
2022-10-20T08:48:27.712Z,32.35
2022-10-20T08:49:27.712Z,32.35
2022-10-20T08:50:27.734Z,32.07
2022-10-20T08:51:27.714Z,34.79
2022-10-20T08:52:27.714Z,32.96
2022-10-20T08:53:27.715Z,32.17
2022-10-20T08:54:27.719Z,33.25
2022-10-20T08:55:27.722Z,32.65
2022-10-20T08:56:27.717Z,32.17
2022-10-20T08:57:27.716Z,32.28
2022-10-20T08:58:27.718Z,32.08
2022-10-20T08:59:27.718Z,32.37
2022-10-20T09:00:27.732Z,32.37
2022-10-20T09:01:27.769Z,32.18
2022-10-20T09:02:27.720Z,32.37
2022-10-20T09:03:27.720Z,32.37
2022-10-20T09:04:27.723Z,32.28
2022-10-20T09:05:27.733Z,32.17
2022-10-20T09:06:27.745Z,32.08
2022-10-20T09:07:27.723Z,32.18
2022-10-20T09:08:27.822Z,36.05
2022-10-20T09:09:27.725Z,33.81
2022-10-20T09:10:27.728Z,32.45
2022-10-20T09:11:27.726Z,32.07
2022-10-20T09:12:31.023Z,32.08
2022-10-20T09:13:27.730Z,32.45
2022-10-20T09:14:27.731Z,32.07
2022-10-20T09:15:27.729Z,32.26
2022-10-20T09:16:41.016Z,32.17
2022-10-20T09:17:27.734Z,32.07
2022-10-20T09:18:27.732Z,32.26
2022-10-20T09:19:27.745Z,32.35
2022-10-20T09:20:27.735Z,32.45
2022-10-20T09:21:27.737Z,32.45
2022-10-20T09:22:32.020Z,32.35
2022-10-20T09:23:40.645Z,32.45
2022-10-20T09:24:27.737Z,32.35
2022-10-20T09:25:27.737Z,32.45
2022-10-20T09:26:39.111Z,32.45
2022-10-20T09:27:27.737Z,32.55
2022-10-20T09:28:31.228Z,32.45
2022-10-20T09:29:27.741Z,32.45
2022-10-20T09:30:27.740Z,32.26
2022-10-20T09:31:27.741Z,32.45
2022-10-20T09:32:45.597Z,32.26
2022-10-20T09:33:27.741Z,32.35
2022-10-20T09:34:27.743Z,32.65
2022-10-20T09:35:27.752Z,32.45
2022-10-20T09:36:27.745Z,32.75
2022-10-20T09:37:27.745Z,32.75
2022-10-20T09:38:27.766Z,32.84
2022-10-20T09:39:27.747Z,32.26
2022-10-20T09:40:27.749Z,32.45
2022-10-20T09:41:27.749Z,32.35
2022-10-20T09:42:27.749Z,32.84
2022-10-20T09:43:27.747Z,32.65
2022-10-20T09:44:27.749Z,33.72
2022-10-20T09:45:27.899Z,32.65
2022-10-20T09:46:27.752Z,33.23
2022-10-20T09:47:27.753Z,32.84
2022-10-20T09:48:27.750Z,32.84
2022-10-20T09:49:27.751Z,32.84
2022-10-20T09:50:27.753Z,33.14
2022-10-20T09:51:27.754Z,32.75
2022-10-20T09:52:27.754Z,32.55
2022-10-20T09:53:27.755Z,32.55
2022-10-20T09:54:27.776Z,32.65
2022-10-20T09:55:27.755Z,32.55
2022-10-20T09:56:27.756Z,32.55
2022-10-20T09:57:27.756Z,32.65
2022-10-20T09:58:27.758Z,32.75
2022-10-20T09:59:27.757Z,32.65
2022-10-20T10:00:38.539Z,32.65
2022-10-20T10:01:27.810Z,32.84
2022-10-20T10:02:27.758Z,32.65
2022-10-20T10:03:27.762Z,32.65
2022-10-20T10:04:27.760Z,32.73
2022-10-20T10:05:27.761Z,32.75
2022-10-20T10:06:27.762Z,32.75
2022-10-20T10:07:27.763Z,32.84
2022-10-20T10:08:27.861Z,32.65
2022-10-20T10:09:27.765Z,32.75
2022-10-20T10:10:27.788Z,32.84
2022-10-20T10:11:27.765Z,32.92
2022-10-20T10:12:27.766Z,32.92
2022-10-20T10:13:27.767Z,32.75
2022-10-20T10:14:27.769Z,32.94
2022-10-20T10:15:27.766Z,32.94
2022-10-20T10:16:27.766Z,32.92
2022-10-20T10:17:27.768Z,33.02
2022-10-20T10:18:27.768Z,32.92
2022-10-20T10:19:27.790Z,33.12
2022-10-20T10:20:27.772Z,32.92
2022-10-20T10:21:27.769Z,33.12
2022-10-20T10:22:27.769Z,33.22
2022-10-20T10:23:27.774Z,33.31
2022-10-20T10:24:27.771Z,33.02
2022-10-20T10:25:27.772Z,32.92
2022-10-20T10:26:27.797Z,33.02
2022-10-20T10:27:27.772Z,33.31
2022-10-20T10:28:27.826Z,33.22
2022-10-20T10:29:27.775Z,33.22
2022-10-20T10:30:27.802Z,33.22
2022-10-20T10:31:27.773Z,33.22
2022-10-20T10:32:27.773Z,33.22
2022-10-20T10:33:27.776Z,33.22
2022-10-20T10:34:27.777Z,33.31
2022-10-20T10:35:27.777Z,33.22
2022-10-20T10:36:27.781Z,33.12
2022-10-20T10:37:29.687Z,33.02
2022-10-20T10:38:27.776Z,32.92
2022-10-20T10:39:27.781Z,32.92
2022-10-20T10:40:27.781Z,32.92
2022-10-20T10:41:27.787Z,33.02
2022-10-20T10:42:27.806Z,32.82
2022-10-20T10:43:27.780Z,32.82
2022-10-20T10:44:27.786Z,32.92
2022-10-20T10:45:27.783Z,33.02
2022-10-20T10:46:27.783Z,32.92
2022-10-20T10:47:27.783Z,33.02
2022-10-20T10:48:27.789Z,33.02
2022-10-20T10:49:27.783Z,32.92
2022-10-20T10:50:27.785Z,33.02
2022-10-20T10:51:27.786Z,33.02
2022-10-20T10:52:27.784Z,32.82
2022-10-20T10:53:27.788Z,32.92
2022-10-20T10:54:27.784Z,33.02
2022-10-20T10:55:47.737Z,33.12
2022-10-20T10:56:27.804Z,33.02
2022-10-20T10:57:27.786Z,33.22
2022-10-20T10:58:27.812Z,33.12
2022-10-20T10:59:27.788Z,33.22
2022-10-20T11:00:27.787Z,33.22
2022-10-20T11:01:27.789Z,33.31
2022-10-20T11:02:27.787Z,33.22
2022-10-20T11:03:27.791Z,33.31
2022-10-20T11:04:27.789Z,33.31
2022-10-20T11:05:27.803Z,33.31
2022-10-20T11:06:27.791Z,33.12
2022-10-20T11:07:27.791Z,33.12
2022-10-20T11:08:27.899Z,33.12
2022-10-20T11:09:27.795Z,32.92
2022-10-20T11:10:27.791Z,33.31
2022-10-20T11:11:27.792Z,33.31
2022-10-20T11:12:27.792Z,33.31
2022-10-20T11:13:27.793Z,33.02
2022-10-20T11:14:27.816Z,33.41
2022-10-20T11:15:27.795Z,33.12
2022-10-20T11:16:27.794Z,33.51
2022-10-20T11:17:27.796Z,33.51
2022-10-20T11:18:27.793Z,33.02
2022-10-20T11:19:27.794Z,33.12
2022-10-20T11:20:27.795Z,32.92
2022-10-20T11:21:27.800Z,33.61
2022-10-20T11:22:27.796Z,33.12
2022-10-20T11:23:27.883Z,33.61
2022-10-20T11:24:27.796Z,33.70
2022-10-20T11:25:27.798Z,33.12
2022-10-20T11:26:29.220Z,33.22
2022-10-20T11:27:27.798Z,33.22
2022-10-20T11:28:27.798Z,32.92
2022-10-20T11:29:27.798Z,33.31
2022-10-20T11:30:27.818Z,33.31
2022-10-20T11:31:27.816Z,33.22
2022-10-20T11:32:27.854Z,33.12
2022-10-20T11:33:27.802Z,33.31
2022-10-20T11:34:27.798Z,33.31
2022-10-20T11:35:27.800Z,33.29
2022-10-20T11:36:27.802Z,33.29
2022-10-20T11:37:27.804Z,33.22
2022-10-20T11:38:27.801Z,33.22
2022-10-20T11:39:27.805Z,33.31
2022-10-20T11:40:27.805Z,33.22
2022-10-20T11:41:27.940Z,33.20
2022-10-20T11:42:27.802Z,33.20
2022-10-20T11:43:27.803Z,33.29
2022-10-20T11:44:27.804Z,33.31
2022-10-20T11:45:27.804Z,33.31
2022-10-20T11:46:27.825Z,33.20
2022-10-20T11:47:27.806Z,33.20
2022-10-20T11:48:27.807Z,33.12
2022-10-20T11:49:27.808Z,33.20
2022-10-20T11:50:27.806Z,33.20
2022-10-20T11:51:27.806Z,33.22
2022-10-20T11:52:27.808Z,33.39
2022-10-20T11:53:27.807Z,33.29
2022-10-20T11:54:27.806Z,33.22
2022-10-20T11:55:27.807Z,33.20
2022-10-20T11:56:27.808Z,33.78
2022-10-20T11:57:27.808Z,33.29
2022-10-20T11:58:27.815Z,33.31
2022-10-20T11:59:27.809Z,33.11
2022-10-20T12:00:27.809Z,33.11
2022-10-20T12:01:27.809Z,33.41
2022-10-20T12:02:27.832Z,33.11
2022-10-20T12:03:27.810Z,33.39
2022-10-20T12:04:27.808Z,33.11
2022-10-20T12:05:27.809Z,33.39
2022-10-20T12:06:27.808Z,33.39
2022-10-20T12:07:27.811Z,33.31
2022-10-20T12:08:30.667Z,33.39
2022-10-20T12:09:27.811Z,33.41
2022-10-20T12:10:27.809Z,33.22
2022-10-20T12:11:27.811Z,33.59
2022-10-20T12:12:27.813Z,33.51
2022-10-20T12:13:27.813Z,33.69
2022-10-20T12:14:27.813Z,33.70
2022-10-20T12:15:27.814Z,33.51
2022-10-20T12:16:27.812Z,33.61
2022-10-20T12:17:27.815Z,33.41
2022-10-20T12:18:27.834Z,33.59
2022-10-20T12:19:27.816Z,33.69
2022-10-20T12:20:27.813Z,33.61
2022-10-20T12:21:31.289Z,33.51
2022-10-20T12:22:27.814Z,33.20
2022-10-20T12:23:27.815Z,33.70
2022-10-20T12:24:27.815Z,33.12
2022-10-20T12:25:27.817Z,33.39
2022-10-20T12:26:27.814Z,33.51
2022-10-20T12:27:27.825Z,33.41
2022-10-20T12:28:27.925Z,33.41
2022-10-20T12:29:27.818Z,33.51
2022-10-20T12:30:27.816Z,33.41
2022-10-20T12:31:27.821Z,33.41
2022-10-20T12:32:27.821Z,33.51
2022-10-20T12:33:27.821Z,33.51
2022-10-20T12:34:27.845Z,33.41
2022-10-20T12:35:27.831Z,33.22
2022-10-20T12:36:27.818Z,33.12
2022-10-20T12:37:27.820Z,33.41
2022-10-20T12:38:27.820Z,33.31
2022-10-20T12:39:27.821Z,33.22
2022-10-20T12:40:27.821Z,33.22
2022-10-20T12:41:27.825Z,33.22
2022-10-20T12:42:27.822Z,33.12
2022-10-20T12:43:27.822Z,33.22
2022-10-20T12:44:27.823Z,33.41
2022-10-20T12:45:34.090Z,33.31
2022-10-20T12:46:29.031Z,33.90
2022-10-20T12:47:27.823Z,33.70
2022-10-20T12:48:27.822Z,33.41
2022-10-20T12:49:27.825Z,33.22
2022-10-20T12:50:27.844Z,33.51
2022-10-20T12:51:27.828Z,33.41
2022-10-20T12:52:27.827Z,33.70
2022-10-20T12:53:27.825Z,33.70
2022-10-20T12:54:27.825Z,33.70